sensor_id;sensor_type;location;lat;lon;timestamp;pressure;altitude;pressure_sealevel;temperature;humidity
28312;BME280;15572;48.810;9.148;2022-11-06T00:03:09;98575.72;;;3.42;100.00
28312;BME280;15572;48.810;9.148;2022-11-06T00:08:05;98562.06;;;3.45;100.00
28312;BME280;15572;48.810;9.148;2022-11-06T00:13:02;98558.97;;;3.50;100.00
28312;BME280;15572;48.810;9.148;2022-11-06T00:18:00;98548.25;;;3.50;100.00
28312;BME280;15572;48.810;9.148;2022-11-06T00:22:56;98555.88;;;3.45;100.00
28312;BME280;15572;48.810;9.148;2022-11-06T00:27:53;98558.97;;;3.40;100.00
28312;BME280;15572;48.810;9.148;2022-11-06T00:32:49;98565.72;;;3.44;100.00
28312;BME280;15572;48.810;9.148;2022-11-06T00:37:47;98564.75;;;3.45;100.00
28312;BME280;15572;48.810;9.148;2022-11-06T00:42:44;98560.25;;;3.46;100.00
28312;BME280;15572;48.810;9.148;2022-11-06T00:47:40;98576.59;;;3.33;100.00
28312;BME280;15572;48.810;9.148;2022-11-06T00:52:37;98580.97;;;3.34;100.00
28312;BME280;15572;48.810;9.148;2022-11-06T00:57:34;98586.72;;;3.39;100.00
28312;BME280;15572;48.810;9.148;2022-11-06T01:02:31;98575.31;;;3.37;100.00
28312;BME280;15572;48.810;9.148;2022-11-06T01:07:27;98566.19;;;3.30;100.00
28312;BME280;15572;48.810;9.148;2022-11-06T01:12:24;98569.84;;;3.19;100.00
28312;BME280;15572;48.810;9.148;2022-11-06T01:17:22;98575.34;;;3.08;100.00
28312;BME280;15572;48.810;9.148;2022-11-06T01:22:19;98561.81;;;3.10;100.00
28312;BME280;15572;48.810;9.148;2022-11-06T01:27:15;98560.69;;;3.12;100.00
28312;BME280;15572;48.810;9.148;2022-11-06T01:32:12;98568.00;;;3.10;100.00
28312;BME280;15572;48.810;9.148;2022-11-06T01:37:10;98569.25;;;3.16;100.00
28312;BME280;15572;48.810;9.148;2022-11-06T01:42:10;98565.72;;;3.15;100.00
28312;BME280;15572;48.810;9.148;2022-11-06T01:47:18;98564.22;;;3.03;100.00
28312;BME280;15572;48.810;9.148;2022-11-06T01:52:17;98560.81;;;3.01;100.00
28312;BME280;15572;48.810;9.148;2022-11-06T01:57:15;98564.63;;;3.08;100.00
28312;BME280;15572;48.810;9.148;2022-11-06T02:02:13;98559.84;;;3.12;100.00
28312;BME280;15572;48.810;9.148;2022-11-06T02:07:12;98557.03;;;3.04;100.00
28312;BME280;15572;48.810;9.148;2022-11-06T02:12:17;98552.50;;;2.94;100.00
28312;BME280;15572;48.810;9.148;2022-11-06T02:17:21;98540.69;;;2.87;100.00
28312;BME280;15572;48.810;9.148;2022-11-06T02:27:53;98546.03;;;2.87;100.00
28312;BME280;15572;48.810;9.148;2022-11-06T02:32:59;98528.31;;;2.86;100.00
28312;BME280;15572;48.810;9.148;2022-11-06T02:38:00;98521.25;;;2.76;100.00
28312;BME280;15572;48.810;9.148;2022-11-06T02:43:03;98513.91;;;2.78;100.00
28312;BME280;15572;48.810;9.148;2022-11-06T02:48:02;98504.66;;;2.72;100.00
28312;BME280;15572;48.810;9.148;2022-11-06T02:53:03;98486.22;;;2.69;100.00
28312;BME280;15572;48.810;9.148;2022-11-06T02:58:04;98484.38;;;2.70;100.00
28312;BME280;15572;48.810;9.148;2022-11-06T03:03:05;98463.13;;;2.68;100.00
28312;BME280;15572;48.810;9.148;2022-11-06T03:08:09;98471.31;;;2.67;100.00
28312;BME280;15572;48.810;9.148;2022-11-06T03:13:15;98463.69;;;2.62;100.00
28312;BME280;15572;48.810;9.148;2022-11-06T03:18:15;98462.88;;;2.62;100.00
28312;BME280;15572;48.810;9.148;2022-11-06T03:23:17;98456.81;;;2.60;100.00
28312;BME280;15572;48.810;9.148;2022-11-06T03:28:23;98459.59;;;2.58;100.00
28312;BME280;15572;48.810;9.148;2022-11-06T03:33:24;98460.47;;;2.59;100.00
28312;BME280;15572;48.810;9.148;2022-11-06T03:38:28;98458.75;;;2.58;100.00
28312;BME280;15572;48.810;9.148;2022-11-06T03:43:31;98447.22;;;2.57;100.00
28312;BME280;15572;48.810;9.148;2022-11-06T03:48:33;98447.50;;;2.54;100.00
28312;BME280;15572;48.810;9.148;2022-11-06T03:53:35;98436.09;;;2.52;100.00
28312;BME280;15572;48.810;9.148;2022-11-06T03:58:36;98441.75;;;2.49;100.00
28312;BME280;15572;48.810;9.148;2022-11-06T04:03:38;98432.88;;;2.48;100.00
28312;BME280;15572;48.810;9.148;2022-11-06T04:08:37;98417.97;;;2.46;100.00
28312;BME280;15572;48.810;9.148;2022-11-06T04:13:53;98417.41;;;2.42;100.00
28312;BME280;15572;48.810;9.148;2022-11-06T04:18:55;98411.50;;;2.39;100.00
28312;BME280;15572;48.810;9.148;2022-11-06T04:24:12;98408.97;;;2.37;100.00
28312;BME280;15572;48.810;9.148;2022-11-06T04:29:41;98404.59;;;2.36;100.00
28312;BME280;15572;48.810;9.148;2022-11-06T04:34:43;98404.59;;;2.36;100.00
28312;BME280;15572;48.810;9.148;2022-11-06T04:39:49;98397.72;;;2.34;100.00
28312;BME280;15572;48.810;9.148;2022-11-06T04:44:51;98392.50;;;2.32;100.00
28312;BME280;15572;48.810;9.148;2022-11-06T04:49:52;98385.59;;;2.30;100.00
28312;BME280;15572;48.810;9.148;2022-11-06T04:54:52;98388.13;;;2.31;100.00
28312;BME280;15572;48.810;9.148;2022-11-06T04:59:50;98370.72;;;2.27;100.00
28312;BME280;15572;48.810;9.148;2022-11-06T05:04:47;98377.31;;;2.23;100.00
28312;BME280;15572;48.810;9.148;2022-11-06T05:09:44;98391.78;;;2.21;100.00
28312;BME280;15572;48.810;9.148;2022-11-06T05:14:40;98404.72;;;2.16;100.00
28312;BME280;15572;48.810;9.148;2022-11-06T05:19:38;98410.63;;;2.09;100.00
28312;BME280;15572;48.810;9.148;2022-11-06T05:24:35;98404.16;;;2.02;100.00
28312;BME280;15572;48.810;9.148;2022-11-06T05:29:31;98411.16;;;2.03;100.00
28312;BME280;15572;48.810;9.148;2022-11-06T05:34:28;98412.44;;;2.09;100.00
28312;BME280;15572;48.810;9.148;2022-11-06T05:39:26;98413.44;;;2.08;100.00
28312;BME280;15572;48.810;9.148;2022-11-06T05:44:22;98390.09;;;2.00;100.00
28312;BME280;15572;48.810;9.148;2022-11-06T05:49:19;98400.22;;;1.97;100.00
28312;BME280;15572;48.810;9.148;2022-11-06T05:54:15;98378.41;;;1.92;100.00
28312;BME280;15572;48.810;9.148;2022-11-06T05:59:13;98406.09;;;1.91;100.00
28312;BME280;15572;48.810;9.148;2022-11-06T06:04:10;98404.84;;;1.95;100.00
28312;BME280;15572;48.810;9.148;2022-11-06T06:09:06;98396.38;;;1.90;100.00
28312;BME280;15572;48.810;9.148;2022-11-06T06:14:03;98390.19;;;1.80;100.00
28312;BME280;15572;48.810;9.148;2022-11-06T06:19:01;98411.84;;;1.86;100.00
28312;BME280;15572;48.810;9.148;2022-11-06T06:23:57;98399.34;;;1.87;100.00
28312;BME280;15572;48.810;9.148;2022-11-06T06:28:54;98404.94;;;1.74;100.00
28312;BME280;15572;48.810;9.148;2022-11-06T06:33:51;98385.81;;;1.69;100.00
28312;BME280;15572;48.810;9.148;2022-11-06T06:38:48;98382.00;;;1.72;100.00
28312;BME280;15572;48.810;9.148;2022-11-06T06:43:46;98391.16;;;1.69;100.00
28312;BME280;15572;48.810;9.148;2022-11-06T06:48:43;98385.69;;;1.71;100.00
28312;BME280;15572;48.810;9.148;2022-11-06T06:53:39;98370.38;;;1.82;100.00
28312;BME280;15572;48.810;9.148;2022-11-06T07:03:53;98350.28;;;1.88;100.00
28312;BME280;15572;48.810;9.148;2022-11-06T07:08:58;98348.47;;;1.98;100.00
28312;BME280;15572;48.810;9.148;2022-11-06T07:13:59;98347.06;;;2.03;100.00
28312;BME280;15572;48.810;9.148;2022-11-06T07:18:55;98338.38;;;2.11;100.00
28312;BME280;15572;48.810;9.148;2022-11-06T07:23:52;98320.94;;;2.17;100.00
28312;BME280;15572;48.810;9.148;2022-11-06T07:28:48;98314.59;;;2.27;100.00
28312;BME280;15572;48.810;9.148;2022-11-06T07:33:46;98306.88;;;2.34;100.00
28312;BME280;15572;48.810;9.148;2022-11-06T07:38:43;98308.25;;;2.38;100.00
28312;BME280;15572;48.810;9.148;2022-11-06T07:43:40;98304.06;;;2.45;100.00
28312;BME280;15572;48.810;9.148;2022-11-06T07:48:37;98286.44;;;2.52;100.00
28312;BME280;15572;48.810;9.148;2022-11-06T07:53:36;98275.03;;;2.60;100.00
28312;BME280;15572;48.810;9.148;2022-11-06T07:58:33;98266.13;;;2.69;100.00
28312;BME280;15572;48.810;9.148;2022-11-06T08:03:30;98245.72;;;2.77;100.00
28312;BME280;15572;48.810;9.148;2022-11-06T08:08:26;98246.78;;;2.84;100.00
28312;BME280;15572;48.810;9.148;2022-11-06T08:13:24;98233.44;;;2.84;100.00
28312;BME280;15572;48.810;9.148;2022-11-06T08:18:21;98231.28;;;2.97;100.00
28312;BME280;15572;48.810;9.148;2022-11-06T08:23:17;98227.00;;;3.05;100.00
28312;BME280;15572;48.810;9.148;2022-11-06T08:28:14;98233.97;;;3.15;100.00
28312;BME280;15572;48.810;9.148;2022-11-06T08:33:12;98242.81;;;3.25;100.00
28312;BME280;15572;48.810;9.148;2022-11-06T08:38:08;98230.22;;;3.35;100.00
28312;BME280;15572;48.810;9.148;2022-11-06T08:43:06;98232.63;;;3.56;100.00
28312;BME280;15572;48.810;9.148;2022-11-06T08:48:04;98228.72;;;3.86;100.00
28312;BME280;15572;48.810;9.148;2022-11-06T08:53:03;98225.78;;;4.15;100.00
28312;BME280;15572;48.810;9.148;2022-11-06T08:58:00;98223.13;;;4.41;100.00
28312;BME280;15572;48.810;9.148;2022-11-06T09:02:58;98214.72;;;4.61;100.00
28312;BME280;15572;48.810;9.148;2022-11-06T09:07:54;98218.53;;;4.85;100.00
28312;BME280;15572;48.810;9.148;2022-11-06T09:12:53;98216.81;;;5.09;100.00
28312;BME280;15572;48.810;9.148;2022-11-06T09:17:50;98223.94;;;5.35;100.00
28312;BME280;15572;48.810;9.148;2022-11-06T09:22:47;98225.00;;;5.58;100.00
28312;BME280;15572;48.810;9.148;2022-11-06T09:27:45;98263.50;;;5.75;100.00
28312;BME280;15572;48.810;9.148;2022-11-06T09:32:49;98247.75;;;5.88;100.00
28312;BME280;15572;48.810;9.148;2022-11-06T09:37:50;98243.25;;;6.05;100.00
28312;BME280;15572;48.810;9.148;2022-11-06T09:43:04;98203.28;;;6.18;100.00
28312;BME280;15572;48.810;9.148;2022-11-06T09:48:16;98222.59;;;6.38;100.00
28312;BME280;15572;48.810;9.148;2022-11-06T09:53:19;98196.88;;;6.51;100.00
28312;BME280;15572;48.810;9.148;2022-11-06T09:58:20;98190.78;;;6.65;100.00
28312;BME280;15572;48.810;9.148;2022-11-06T10:03:23;98171.88;;;6.82;100.00
28312;BME280;15572;48.810;9.148;2022-11-06T10:08:23;98168.63;;;7.02;100.00
28312;BME280;15572;48.810;9.148;2022-11-06T10:13:46;98165.47;;;7.22;100.00
28312;BME280;15572;48.810;9.148;2022-11-06T10:18:54;98153.44;;;7.40;100.00
28312;BME280;15572;48.810;9.148;2022-11-06T10:23:55;98152.81;;;7.61;100.00
28312;BME280;15572;48.810;9.148;2022-11-06T10:29:19;98131.72;;;7.87;100.00
28312;BME280;15572;48.810;9.148;2022-11-06T10:34:22;98128.00;;;8.11;100.00
28312;BME280;15572;48.810;9.148;2022-11-06T10:39:26;98112.28;;;8.29;100.00
28312;BME280;15572;48.810;9.148;2022-11-06T10:44:26;98110.69;;;8.43;100.00
28312;BME280;15572;48.810;9.148;2022-11-06T10:49:31;98094.03;;;8.54;100.00
28312;BME280;15572;48.810;9.148;2022-11-06T10:54:41;98087.78;;;8.54;100.00
28312;BME280;15572;48.810;9.148;2022-11-06T10:59:42;98072.25;;;8.56;100.00
28312;BME280;15572;48.810;9.148;2022-11-06T11:04:40;98056.53;;;8.59;100.00
28312;BME280;15572;48.810;9.148;2022-11-06T11:09:38;98052.25;;;8.65;100.00
28312;BME280;15572;48.810;9.148;2022-11-06T11:14:34;98020.00;;;8.78;100.00
28312;BME280;15572;48.810;9.148;2022-11-06T11:19:35;98004.91;;;8.83;100.00
28312;BME280;15572;48.810;9.148;2022-11-06T11:24:33;98005.19;;;8.88;100.00
28312;BME280;15572;48.810;9.148;2022-11-06T11:29:31;97995.31;;;8.96;100.00
28312;BME280;15572;48.810;9.148;2022-11-06T11:34:31;97981.09;;;9.08;100.00
28312;BME280;15572;48.810;9.148;2022-11-06T11:39:30;97972.44;;;9.13;100.00
28312;BME280;15572;48.810;9.148;2022-11-06T11:44:28;97970.44;;;9.21;100.00
28312;BME280;15572;48.810;9.148;2022-11-06T11:49:27;97947.72;;;9.37;100.00
28312;BME280;15572;48.810;9.148;2022-11-06T11:54:26;97930.63;;;9.58;100.00
28312;BME280;15572;48.810;9.148;2022-11-06T11:59:26;97924.75;;;9.76;100.00
28312;BME280;15572;48.810;9.148;2022-11-06T12:04:27;97915.28;;;9.93;100.00
28312;BME280;15572;48.810;9.148;2022-11-06T12:09:27;97922.84;;;10.10;100.00
28312;BME280;15572;48.810;9.148;2022-11-06T12:14:32;97901.44;;;10.15;100.00
28312;BME280;15572;48.810;9.148;2022-11-06T12:19:34;97899.66;;;10.23;100.00
28312;BME280;15572;48.810;9.148;2022-11-06T12:24:36;97891.16;;;10.32;100.00
28312;BME280;15572;48.810;9.148;2022-11-06T12:29:37;97893.09;;;10.45;100.00
28312;BME280;15572;48.810;9.148;2022-11-06T12:34:39;97885.84;;;10.52;100.00
28312;BME280;15572;48.810;9.148;2022-11-06T12:39:39;97875.00;;;10.52;100.00
28312;BME280;15572;48.810;9.148;2022-11-06T12:44:39;97874.16;;;10.45;100.00
28312;BME280;15572;48.810;9.148;2022-11-06T12:50:06;97868.94;;;10.43;100.00
28312;BME280;15572;48.810;9.148;2022-11-06T12:55:18;97861.00;;;10.42;100.00
28312;BME280;15572;48.810;9.148;2022-11-06T13:00:19;97841.03;;;10.43;100.00
28312;BME280;15572;48.810;9.148;2022-11-06T13:05:21;97843.56;;;10.51;100.00
28312;BME280;15572;48.810;9.148;2022-11-06T13:10:32;97837.78;;;10.67;100.00
28312;BME280;15572;48.810;9.148;2022-11-06T13:15:35;97836.75;;;10.94;100.00
28312;BME280;15572;48.810;9.148;2022-11-06T13:20:43;97826.34;;;11.05;100.00
28312;BME280;15572;48.810;9.148;2022-11-06T13:25:46;97815.72;;;11.03;100.00
28312;BME280;15572;48.810;9.148;2022-11-06T13:30:44;97812.81;;;10.98;100.00
28312;BME280;15572;48.810;9.148;2022-11-06T13:35:43;97823.63;;;10.91;100.00
28312;BME280;15572;48.810;9.148;2022-11-06T13:40:42;97819.66;;;10.81;100.00
28312;BME280;15572;48.810;9.148;2022-11-06T13:45:44;97810.06;;;10.72;100.00
28312;BME280;15572;48.810;9.148;2022-11-06T13:50:49;97806.53;;;10.65;100.00
28312;BME280;15572;48.810;9.148;2022-11-06T13:55:57;97799.44;;;10.57;100.00
28312;BME280;15572;48.810;9.148;2022-11-06T14:01:02;97800.03;;;10.46;100.00
28312;BME280;15572;48.810;9.148;2022-11-06T14:06:05;97798.34;;;10.38;100.00
28312;BME280;15572;48.810;9.148;2022-11-06T14:11:06;97794.41;;;10.34;100.00
28312;BME280;15572;48.810;9.148;2022-11-06T14:16:23;97807.91;;;10.28;100.00
28312;BME280;15572;48.810;9.148;2022-11-06T14:21:49;97811.63;;;10.20;100.00
28312;BME280;15572;48.810;9.148;2022-11-06T14:26:48;97811.97;;;10.10;100.00
28312;BME280;15572;48.810;9.148;2022-11-06T14:31:58;97806.09;;;10.00;100.00
28312;BME280;15572;48.810;9.148;2022-11-06T14:36:57;97810.88;;;9.92;100.00
28312;BME280;15572;48.810;9.148;2022-11-06T14:41:55;97804.78;;;9.83;100.00
28312;BME280;15572;48.810;9.148;2022-11-06T14:46:55;97799.56;;;9.75;100.00
28312;BME280;15572;48.810;9.148;2022-11-06T14:51:59;97781.63;;;9.67;100.00
28312;BME280;15572;48.810;9.148;2022-11-06T14:56:56;97772.44;;;9.62;100.00
28312;BME280;15572;48.810;9.148;2022-11-06T15:01:55;97764.09;;;9.57;100.00
28312;BME280;15572;48.810;9.148;2022-11-06T15:06:53;97755.16;;;9.50;100.00
28312;BME280;15572;48.810;9.148;2022-11-06T15:11:59;97768.84;;;9.48;100.00
28312;BME280;15572;48.810;9.148;2022-11-06T15:17:02;97767.38;;;9.46;100.00
28312;BME280;15572;48.810;9.148;2022-11-06T15:22:05;97766.72;;;9.37;100.00
28312;BME280;15572;48.810;9.148;2022-11-06T15:27:07;97760.59;;;9.22;100.00
28312;BME280;15572;48.810;9.148;2022-11-06T15:32:10;97767.16;;;9.06;100.00
28312;BME280;15572;48.810;9.148;2022-11-06T15:37:10;97761.03;;;8.91;100.00
28312;BME280;15572;48.810;9.148;2022-11-06T15:42:13;97779.59;;;8.79;100.00
28312;BME280;15572;48.810;9.148;2022-11-06T15:47:19;97777.44;;;8.68;100.00
28312;BME280;15572;48.810;9.148;2022-11-06T15:52:17;97766.72;;;8.54;100.00
28312;BME280;15572;48.810;9.148;2022-11-06T15:57:17;97778.03;;;8.42;100.00
28312;BME280;15572;48.810;9.148;2022-11-06T16:02:18;97769.75;;;8.29;100.00
28312;BME280;15572;48.810;9.148;2022-11-06T16:07:16;97763.84;;;8.19;100.00
28312;BME280;15572;48.810;9.148;2022-11-06T16:12:16;97763.34;;;8.09;100.00
28312;BME280;15572;48.810;9.148;2022-11-06T16:17:16;97759.72;;;8.02;100.00
28312;BME280;15572;48.810;9.148;2022-11-06T16:22:15;97755.75;;;7.98;100.00
28312;BME280;15572;48.810;9.148;2022-11-06T16:27:14;97753.81;;;7.92;100.00
28312;BME280;15572;48.810;9.148;2022-11-06T16:32:14;97762.91;;;7.91;100.00
28312;BME280;15572;48.810;9.148;2022-11-06T16:37:34;97764.97;;;7.89;100.00
28312;BME280;15572;48.810;9.148;2022-11-06T16:42:33;97767.84;;;7.87;100.00
28312;BME280;15572;48.810;9.148;2022-11-06T16:47:30;97768.69;;;7.88;100.00
28312;BME280;15572;48.810;9.148;2022-11-06T16:52:28;97749.44;;;7.91;100.00
28312;BME280;15572;48.810;9.148;2022-11-06T16:57:27;97742.66;;;7.95;100.00
28312;BME280;15572;48.810;9.148;2022-11-06T17:02:28;97753.72;;;8.00;100.00
28312;BME280;15572;48.810;9.148;2022-11-06T17:07:25;97756.66;;;8.05;100.00
28312;BME280;15572;48.810;9.148;2022-11-06T17:12:22;97753.38;;;8.10;100.00
28312;BME280;15572;48.810;9.148;2022-11-06T17:17:23;97753.66;;;8.15;100.00
28312;BME280;15572;48.810;9.148;2022-11-06T17:22:23;97755.94;;;8.18;100.00
28312;BME280;15572;48.810;9.148;2022-11-06T17:27:20;97779.41;;;8.17;100.00
28312;BME280;15572;48.810;9.148;2022-11-06T17:32:16;97788.13;;;8.19;100.00
28312;BME280;15572;48.810;9.148;2022-11-06T17:37:13;97768.88;;;8.22;100.00
28312;BME280;15572;48.810;9.148;2022-11-06T17:42:11;97767.94;;;8.30;100.00
28312;BME280;15572;48.810;9.148;2022-11-06T17:47:07;97777.72;;;8.31;100.00
28312;BME280;15572;48.810;9.148;2022-11-06T17:52:04;97785.09;;;8.29;100.00
28312;BME280;15572;48.810;9.148;2022-11-06T17:57:02;97790.91;;;8.26;100.00
28312;BME280;15572;48.810;9.148;2022-11-06T18:02:00;97777.41;;;8.26;100.00
28312;BME280;15572;48.810;9.148;2022-11-06T18:06:57;97784.00;;;8.23;100.00
28312;BME280;15572;48.810;9.148;2022-11-06T18:11:54;97792.50;;;8.20;100.00
28312;BME280;15572;48.810;9.148;2022-11-06T18:16:51;97800.78;;;8.19;100.00
28312;BME280;15572;48.810;9.148;2022-11-06T18:21:52;97807.41;;;8.16;100.00
28312;BME280;15572;48.810;9.148;2022-11-06T18:26:48;97801.59;;;8.19;100.00
28312;BME280;15572;48.810;9.148;2022-11-06T18:31:45;97790.25;;;8.38;100.00
28312;BME280;15572;48.810;9.148;2022-11-06T18:36:42;97804.69;;;8.52;100.00
28312;BME280;15572;48.810;9.148;2022-11-06T18:41:40;97812.84;;;8.59;100.00
28312;BME280;15572;48.810;9.148;2022-11-06T18:46:37;97797.59;;;8.72;100.00
28312;BME280;15572;48.810;9.148;2022-11-06T18:51:33;97803.97;;;8.86;100.00
28312;BME280;15572;48.810;9.148;2022-11-06T18:56:31;97810.63;;;8.90;100.00
28312;BME280;15572;48.810;9.148;2022-11-06T19:01:31;97813.94;;;8.92;98.31
28312;BME280;15572;48.810;9.148;2022-11-06T19:06:30;97818.56;;;8.98;96.33
28312;BME280;15572;48.810;9.148;2022-11-06T19:11:26;97816.72;;;8.99;96.96
28312;BME280;15572;48.810;9.148;2022-11-06T19:16:23;97823.44;;;9.09;93.42
28312;BME280;15572;48.810;9.148;2022-11-06T19:21:21;97844.03;;;9.10;94.09
28312;BME280;15572;48.810;9.148;2022-11-06T19:26:17;97855.72;;;9.17;92.11
28312;BME280;15572;48.810;9.148;2022-11-06T19:31:14;97855.31;;;9.20;92.01
28312;BME280;15572;48.810;9.148;2022-11-06T19:36:10;97852.19;;;9.17;92.89
28312;BME280;15572;48.810;9.148;2022-11-06T19:41:08;97873.38;;;9.20;91.95
28312;BME280;15572;48.810;9.148;2022-11-06T19:46:05;97867.56;;;9.16;92.51
28312;BME280;15572;48.810;9.148;2022-11-06T19:51:07;97888.19;;;9.24;91.94
28312;BME280;15572;48.810;9.148;2022-11-06T20:05:11;97895.34;;;9.10;93.09
28312;BME280;15572;48.810;9.148;2022-11-06T20:10:30;97899.47;;;9.06;91.78
28312;BME280;15572;48.810;9.148;2022-11-06T20:15:26;97902.53;;;9.03;92.96
28312;BME280;15572;48.810;9.148;2022-11-06T20:20:24;97898.38;;;9.01;93.61
28312;BME280;15572;48.810;9.148;2022-11-06T20:25:21;97901.25;;;8.99;93.94
28312;BME280;15572;48.810;9.148;2022-11-06T20:30:18;97901.00;;;8.94;94.09
28312;BME280;15572;48.810;9.148;2022-11-06T20:35:15;97905.56;;;8.94;95.83
28312;BME280;15572;48.810;9.148;2022-11-06T20:40:14;97908.00;;;8.88;96.21
28312;BME280;15572;48.810;9.148;2022-11-06T20:45:11;97898.56;;;8.78;98.16
28312;BME280;15572;48.810;9.148;2022-11-06T20:50:08;97894.25;;;8.62;100.00
28312;BME280;15572;48.810;9.148;2022-11-06T20:55:05;97899.03;;;8.45;100.00
28312;BME280;15572;48.810;9.148;2022-11-06T21:00:04;97906.78;;;8.34;100.00
28312;BME280;15572;48.810;9.148;2022-11-06T21:05:01;97900.75;;;8.32;100.00
28312;BME280;15572;48.810;9.148;2022-11-06T21:09:57;97899.06;;;8.31;100.00
28312;BME280;15572;48.810;9.148;2022-11-06T21:14:54;97892.50;;;8.55;98.80
28312;BME280;15572;48.810;9.148;2022-11-06T21:19:51;97893.22;;;8.63;94.74
28312;BME280;15572;48.810;9.148;2022-11-06T21:24:48;97892.19;;;8.85;92.23
28312;BME280;15572;48.810;9.148;2022-11-06T21:29:44;97904.16;;;9.47;84.79
28312;BME280;15572;48.810;9.148;2022-11-06T21:34:41;97912.94;;;10.18;80.11
28312;BME280;15572;48.810;9.148;2022-11-06T21:39:39;97888.06;;;10.35;79.99
28312;BME280;15572;48.810;9.148;2022-11-06T21:44:35;97889.50;;;10.38;80.79
28312;BME280;15572;48.810;9.148;2022-11-06T21:49:32;97889.31;;;10.39;81.70
28312;BME280;15572;48.810;9.148;2022-11-06T21:54:28;97884.78;;;10.53;81.03
28312;BME280;15572;48.810;9.148;2022-11-06T21:59:44;97891.66;;;10.55;81.38
28312;BME280;15572;48.810;9.148;2022-11-06T22:04:40;97893.78;;;10.67;80.94
28312;BME280;15572;48.810;9.148;2022-11-06T22:09:37;97887.38;;;10.94;79.22
28312;BME280;15572;48.810;9.148;2022-11-06T22:14:33;97896.75;;;10.98;78.86
28312;BME280;15572;48.810;9.148;2022-11-06T22:19:32;97904.50;;;11.21;77.91
28312;BME280;15572;48.810;9.148;2022-11-06T22:24:29;97937.44;;;11.51;76.40
28312;BME280;15572;48.810;9.148;2022-11-06T22:29:25;97936.63;;;11.57;76.24
28312;BME280;15572;48.810;9.148;2022-11-06T22:34:22;97943.50;;;11.46;77.27
28312;BME280;15572;48.810;9.148;2022-11-06T22:39:20;97954.31;;;11.33;79.59
28312;BME280;15572;48.810;9.148;2022-11-06T22:44:16;97966.19;;;11.19;82.05
28312;BME280;15572;48.810;9.148;2022-11-06T22:49:13;97970.34;;;11.15;83.60
28312;BME280;15572;48.810;9.148;2022-11-06T22:54:09;97981.59;;;11.18;83.79
28312;BME280;15572;48.810;9.148;2022-11-06T22:59:07;97985.31;;;10.97;87.38
28312;BME280;15572;48.810;9.148;2022-11-06T23:04:07;97988.59;;;10.86;92.32
28312;BME280;15572;48.810;9.148;2022-11-06T23:09:04;97993.56;;;10.76;96.00
28312;BME280;15572;48.810;9.148;2022-11-06T23:14:01;98004.81;;;10.80;98.14
28312;BME280;15572;48.810;9.148;2022-11-06T23:18:59;98000.59;;;10.58;100.00
28312;BME280;15572;48.810;9.148;2022-11-06T23:23:55;98000.31;;;10.52;100.00
28312;BME280;15572;48.810;9.148;2022-11-06T23:28:53;97999.28;;;10.47;100.00
28312;BME280;15572;48.810;9.148;2022-11-06T23:33:50;98007.53;;;10.39;100.00
28312;BME280;15572;48.810;9.148;2022-11-06T23:38:51;98003.19;;;10.44;100.00
28312;BME280;15572;48.810;9.148;2022-11-06T23:43:48;98014.63;;;10.40;100.00
28312;BME280;15572;48.810;9.148;2022-11-06T23:48:45;98015.16;;;10.57;100.00
28312;BME280;15572;48.810;9.148;2022-11-06T23:53:41;98004.69;;;10.47;100.00
28312;BME280;15572;48.810;9.148;2022-11-06T23:58:40;98025.88;;;10.43;100.00
